Time;durP1;ratioP1;P1;durP2;ratioP2;P2;SDS_P1;SDS_P2;PMS_P1;PMS_P2;Temp;Humidity;BMP_temperature;BMP_pressure;BME280_temperature;BME280_humidity;BME280_pressure;Samples;Min_cycle;Max_cycle;Signal;HPM_P1;HPM_P2
2022/07/08 00:02:02;;;;;;;10.15;2.65;;;;;;;;;;5052416;28;20450;-86
2022/07/08 00:04:28;;;;;;;10.57;2.60;;;;;;;;;;5033375;28;20049;-86
2022/07/08 00:06:54;;;;;;;14.80;3.00;;;;;;;;;;5052589;28;20060;-84
2022/07/08 00:09:21;;;;;;;11.73;2.42;;;;;;;;;;5050080;28;20056;-83
2022/07/08 00:11:47;;;;;;;14.25;2.55;;;;;;;;;;5039373;28;20068;-86
2022/07/08 00:14:13;;;;;;;12.20;2.17;;;;;;;;;;5068630;28;20053;-86
2022/07/08 00:16:40;;;;;;;11.27;2.13;;;;;;;;;;5034759;28;20041;-87
2022/07/08 00:19:14;;;;;;;10.52;2.10;;;;;;;;;;5052150;28;20049;-85
2022/07/08 00:21:40;;;;;;;11.68;2.20;;;;;;;;;;5035632;28;20044;-85
2022/07/08 00:24:06;;;;;;;10.73;2.38;;;;;;;;;;5050889;28;20159;-85
2022/07/08 00:26:33;;;;;;;10.05;2.00;;;;;;;;;;5035428;28;20379;-85
2022/07/08 00:28:59;;;;;;;12.30;2.33;;;;;;;;;;5051624;28;20118;-85
2022/07/08 00:31:25;;;;;;;12.43;2.78;;;;;;;;;;5052777;28;20048;-85
2022/07/08 00:33:51;;;;;;;14.88;2.72;;;;;;;;;;5053714;28;20400;-85
2022/07/08 00:36:17;;;;;;;10.45;2.45;;;;;;;;;;5050172;28;20143;-85
2022/07/08 00:38:43;;;;;;;13.52;2.30;;;;;;;;;;5034016;28;20491;-86
2022/07/08 00:41:10;;;;;;;9.70;1.85;;;;;;;;;;5052407;28;20056;-84
2022/07/08 00:43:41;;;;;;;9.48;1.92;;;;;;;;;;5052321;28;20491;-86
2022/07/08 00:46:07;;;;;;;11.07;2.38;;;;;;;;;;5037852;28;20076;-85
2022/07/08 00:48:34;;;;;;;12.38;2.35;;;;;;;;;;5051342;28;20044;-86
2022/07/08 00:51:01;;;;;;;11.38;2.50;;;;;;;;;;5051967;28;20045;-85
2022/07/08 00:53:28;;;;;;;12.93;2.17;;;;;;;;;;5035087;28;20041;-86
2022/07/08 00:55:55;;;;;;;12.95;1.65;;;;;;;;;;5049199;28;20073;-86
2022/07/08 00:58:21;;;;;;;9.57;2.67;;;;;;;;;;5051975;28;20073;-85
2022/07/08 01:00:50;;;;;;;9.93;2.45;;;;;;;;;;5043197;28;20507;-85
2022/07/08 01:03:19;;;;;;;12.20;3.20;;;;;;;;;;5022506;28;20543;-85
2022/07/08 01:05:47;;;;;;;12.73;2.25;;;;;;;;;;5048741;28;20491;-85
2022/07/08 01:08:14;;;;;;;13.15;2.45;;;;;;;;;;5048559;28;20057;-86
2022/07/08 01:10:40;;;;;;;9.05;1.83;;;;;;;;;;5042250;28;20396;-87
2022/07/08 01:13:06;;;;;;;9.75;1.90;;;;;;;;;;5052142;28;20049;-85
2022/07/08 01:15:33;;;;;;;10.18;2.20;;;;;;;;;;5032768;28;20240;-86
2022/07/08 01:17:59;;;;;;;14.90;3.35;;;;;;;;;;5052111;28;20045;-86
2022/07/08 01:20:25;;;;;;;13.05;2.70;;;;;;;;;;5052446;28;20080;-86
2022/07/08 01:22:51;;;;;;;11.27;2.15;;;;;;;;;;5033332;28;20041;-86
2022/07/08 01:25:18;;;;;;;14.55;3.20;;;;;;;;;;5036662;28;20041;-85
2022/07/08 01:27:44;;;;;;;13.45;2.65;;;;;;;;;;5056493;28;20552;-85
2022/07/08 01:30:10;;;;;;;12.80;2.20;;;;;;;;;;5021465;28;20049;-85
2022/07/08 01:32:41;;;;;;;9.88;2.20;;;;;;;;;;5051825;28;20131;-85
2022/07/08 01:35:07;;;;;;;8.90;1.90;;;;;;;;;;5036241;28;20053;-85
2022/07/08 01:37:33;;;;;;;14.10;1.83;;;;;;;;;;5066023;28;20371;-85
2022/07/08 01:39:59;;;;;;;11.02;1.70;;;;;;;;;;5034442;28;20049;-85
2022/07/08 01:42:25;;;;;;;10.07;1.98;;;;;;;;;;5018247;28;20049;-85
2022/07/08 01:44:54;;;;;;;13.52;2.10;;;;;;;;;;5048455;28;20079;-85
2022/07/08 01:47:20;;;;;;;10.23;2.40;;;;;;;;;;5036637;28;20133;-85
2022/07/08 01:49:46;;;;;;;11.73;2.33;;;;;;;;;;5055991;28;20064;-84
2022/07/08 01:52:12;;;;;;;8.77;1.90;;;;;;;;;;5036296;28;20076;-84
2022/07/08 01:54:38;;;;;;;11.20;1.95;;;;;;;;;;5046719;28;20065;-85
2022/07/08 01:57:13;;;;;;;10.75;2.45;;;;;;;;;;5051287;28;20120;-84
2022/07/08 01:59:40;;;;;;;13.55;2.40;;;;;;;;;;5043126;28;20041;-84
2022/07/08 02:02:06;;;;;;;9.25;2.15;;;;;;;;;;5054140;28;20407;-85
2022/07/08 02:04:32;;;;;;;12.50;2.55;;;;;;;;;;5032730;28;20115;-84
2022/07/08 02:06:58;;;;;;;10.02;1.90;;;;;;;;;;5061455;28;20111;-85
2022/07/08 02:09:24;;;;;;;12.20;2.70;;;;;;;;;;5061774;28;20049;-85
2022/07/08 02:14:37;;;;;;;12.65;1.95;;;;;;;;;;5051307;28;20443;-84
2022/07/08 02:17:04;;;;;;;11.73;2.08;;;;;;;;;;5053855;28;20056;-84
2022/07/08 02:19:30;;;;;;;11.73;2.17;;;;;;;;;;5054910;28;20048;-84
2022/07/08 02:21:56;;;;;;;13.35;2.33;;;;;;;;;;5037487;28;20044;-84
2022/07/08 02:24:22;;;;;;;11.35;1.85;;;;;;;;;;5054498;28;20045;-84
2022/07/08 02:26:48;;;;;;;9.88;1.80;;;;;;;;;;5054487;28;20041;-85
2022/07/08 02:29:14;;;;;;;11.13;2.58;;;;;;;;;;5052884;28;20541;-84
2022/07/08 02:31:40;;;;;;;14.05;3.92;;;;;;;;;;5049587;28;20545;-84
2022/07/08 02:34:06;;;;;;;18.05;5.95;;;;;;;;;;5035777;28;20041;-84
2022/07/08 02:36:32;;;;;;;19.67;7.00;;;;;;;;;;5032197;28;20049;-85
2022/07/08 02:38:58;;;;;;;14.50;4.50;;;;;;;;;;5049925;28;20076;-84
2022/07/08 02:41:24;;;;;;;16.30;5.15;;;;;;;;;;5052350;28;20090;-84
2022/07/08 02:43:50;;;;;;;14.80;4.40;;;;;;;;;;5052909;28;20082;-84
2022/07/08 02:46:16;;;;;;;12.52;4.03;;;;;;;;;;5054694;28;20043;-84
2022/07/08 02:48:42;;;;;;;14.50;3.42;;;;;;;;;;5055175;28;20120;-84
2022/07/08 02:51:08;;;;;;;12.52;2.40;;;;;;;;;;5052197;28;20545;-84
2022/07/08 02:53:34;;;;;;;11.02;1.95;;;;;;;;;;5052525;28;20094;-84
2022/07/08 02:56:00;;;;;;;14.00;2.20;;;;;;;;;;5052019;28;20041;-84
2022/07/08 02:58:26;;;;;;;8.35;2.13;;;;;;;;;;5036981;28;20048;-84
2022/07/08 03:00:52;;;;;;;13.35;4.00;;;;;;;;;;5015709;28;20407;-84
2022/07/08 03:03:18;;;;;;;13.18;3.80;;;;;;;;;;5045990;28;20052;-85
2022/07/08 03:05:44;;;;;;;11.02;3.10;;;;;;;;;;5036485;28;20040;-85
2022/07/08 03:08:10;;;;;;;14.20;2.75;;;;;;;;;;5042958;28;20048;-85
2022/07/08 03:10:36;;;;;;;12.02;2.88;;;;;;;;;;5074162;28;20098;-85
2022/07/08 03:13:02;;;;;;;14.15;3.13;;;;;;;;;;5060074;28;20041;-83
2022/07/08 03:15:28;;;;;;;16.60;2.88;;;;;;;;;;5052415;28;20044;-83
2022/07/08 03:17:54;;;;;;;8.93;2.03;;;;;;;;;;5052867;28;20071;-84
2022/07/08 03:20:23;;;;;;;10.90;1.83;;;;;;;;;;5052075;28;20320;-84
2022/07/08 03:22:51;;;;;;;11.93;2.00;;;;;;;;;;5053560;28;20094;-85
2022/07/08 03:25:17;;;;;;;12.55;2.10;;;;;;;;;;5032034;28;20063;-84
2022/07/08 03:27:43;;;;;;;13.30;2.55;;;;;;;;;;5053588;28;20064;-84
2022/07/08 03:30:10;;;;;;;11.10;3.22;;;;;;;;;;5033814;28;20496;-84
2022/07/08 03:32:35;;;;;;;11.50;3.10;;;;;;;;;;5051610;28;20072;-84
2022/07/08 03:35:01;;;;;;;13.75;3.47;;;;;;;;;;5053237;28;20084;-85
2022/07/08 03:37:27;;;;;;;13.40;3.28;;;;;;;;;;5051248;28;20098;-83
2022/07/08 03:39:53;;;;;;;11.13;2.53;;;;;;;;;;5035881;28;20411;-83
2022/07/08 03:42:20;;;;;;;13.80;2.65;;;;;;;;;;5054308;28;20080;-84
2022/07/08 03:44:46;;;;;;;13.00;2.17;;;;;;;;;;5054407;28;20080;-83
2022/07/08 03:47:12;;;;;;;12.35;2.35;;;;;;;;;;5060491;28;20471;-83
2022/07/08 03:49:38;;;;;;;10.98;2.00;;;;;;;;;;5010094;28;20138;-84
2022/07/08 03:52:05;;;;;;;7.68;1.83;;;;;;;;;;5052061;28;20484;-84
2022/07/08 03:54:31;;;;;;;9.02;1.95;;;;;;;;;;5044426;28;20453;-84
2022/07/08 03:56:57;;;;;;;14.38;2.40;;;;;;;;;;5073375;28;20045;-83
2022/07/08 03:59:23;;;;;;;12.80;2.10;;;;;;;;;;5061844;28;20055;-84
2022/07/08 04:01:49;;;;;;;11.32;2.20;;;;;;;;;;5031869;28;20047;-84
2022/07/08 04:04:15;;;;;;;12.88;2.70;;;;;;;;;;5051654;28;20044;-85
2022/07/08 04:06:41;;;;;;;10.27;2.38;;;;;;;;;;5051344;28;20075;-84
2022/07/08 04:09:07;;;;;;;12.30;2.30;;;;;;;;;;5052735;28;20063;-84
2022/07/08 04:11:36;;;;;;;12.70;2.47;;;;;;;;;;5053111;28;20049;-84
2022/07/08 04:14:02;;;;;;;12.85;2.47;;;;;;;;;;5052240;28;20514;-84
2022/07/08 04:16:28;;;;;;;12.43;2.03;;;;;;;;;;5048016;28;20506;-83
2022/07/08 04:18:55;;;;;;;13.27;2.50;;;;;;;;;;5053049;28;20083;-83
2022/07/08 04:21:21;;;;;;;10.77;2.42;;;;;;;;;;5051495;28;20048;-83
2022/07/08 04:23:47;;;;;;;10.57;2.95;;;;;;;;;;5051036;28;20047;-85
2022/07/08 04:26:13;;;;;;;16.58;3.13;;;;;;;;;;5050648;28;20049;-84
2022/07/08 04:28:39;;;;;;;10.75;2.65;;;;;;;;;;5034712;28;20585;-84
2022/07/08 04:31:07;;;;;;;12.38;2.80;;;;;;;;;;5047120;28;20045;-85
2022/07/08 04:33:33;;;;;;;11.02;2.65;;;;;;;;;;5053291;28;20171;-84
2022/07/08 04:35:59;;;;;;;10.63;2.50;;;;;;;;;;5063397;28;20058;-84
2022/07/08 04:38:25;;;;;;;12.40;2.58;;;;;;;;;;5061413;28;20189;-84
2022/07/08 04:40:52;;;;;;;12.90;2.53;;;;;;;;;;5035660;28;20088;-84
2022/07/08 04:43:18;;;;;;;9.73;2.53;;;;;;;;;;5047339;28;20047;-84
2022/07/08 04:45:44;;;;;;;11.27;2.38;;;;;;;;;;5055375;28;20088;-84
2022/07/08 04:48:10;;;;;;;13.88;2.80;;;;;;;;;;5053092;28;20037;-84
2022/07/08 04:50:36;;;;;;;13.10;2.60;;;;;;;;;;5035064;28;20495;-84
2022/07/08 04:53:02;;;;;;;10.68;2.55;;;;;;;;;;5049757;28;20041;-83
2022/07/08 04:55:28;;;;;;;9.73;2.42;;;;;;;;;;5053127;28;20049;-84
2022/07/08 04:57:55;;;;;;;9.00;2.42;;;;;;;;;;5052504;28;20040;-84
2022/07/08 05:00:21;;;;;;;12.15;2.20;;;;;;;;;;5054041;28;20380;-84
2022/07/08 05:02:47;;;;;;;11.73;2.47;;;;;;;;;;5053323;28;20041;-83
2022/07/08 05:05:13;;;;;;;8.80;2.00;;;;;;;;;;5056927;28;20037;-83
2022/07/08 05:07:39;;;;;;;11.57;2.85;;;;;;;;;;5034162;28;20053;-84
2022/07/08 05:10:05;;;;;;;11.75;2.85;;;;;;;;;;5027738;28;20052;-84
2022/07/08 05:12:31;;;;;;;11.18;2.50;;;;;;;;;;5053457;28;20045;-82
2022/07/08 05:14:57;;;;;;;14.75;2.65;;;;;;;;;;5028061;28;20514;-83
2022/07/08 05:17:23;;;;;;;10.48;2.40;;;;;;;;;;5018816;28;20140;-84
2022/07/08 05:19:49;;;;;;;12.18;2.42;;;;;;;;;;5036731;28;20048;-83
2022/07/08 05:22:15;;;;;;;12.15;2.22;;;;;;;;;;5046536;28;20137;-84
2022/07/08 05:24:41;;;;;;;14.63;2.42;;;;;;;;;;5037900;28;20081;-83
2022/07/08 05:27:07;;;;;;;10.77;2.70;;;;;;;;;;5069293;28;21195;-82
2022/07/08 05:29:33;;;;;;;13.75;2.65;;;;;;;;;;5080403;28;20060;-83
2022/07/08 05:31:59;;;;;;;15.32;2.40;;;;;;;;;;5078446;28;20032;-82
2022/07/08 05:34:25;;;;;;;11.13;2.17;;;;;;;;;;5073854;28;20028;-83
2022/07/08 05:36:51;;;;;;;11.60;2.00;;;;;;;;;;5078126;28;20033;-83
2022/07/08 05:39:17;;;;;;;11.73;2.47;;;;;;;;;;5080300;28;20044;-82
2022/07/08 05:41:43;;;;;;;11.50;2.22;;;;;;;;;;5073173;28;20108;-83
2022/07/08 05:44:10;;;;;;;11.25;2.25;;;;;;;;;;5041045;28;20037;-82
2022/07/08 05:46:37;;;;;;;9.27;1.90;;;;;;;;;;5061605;28;20053;-82
2022/07/08 05:49:03;;;;;;;14.63;2.30;;;;;;;;;;5058843;28;20037;-83
2022/07/08 05:51:29;;;;;;;11.48;2.30;;;;;;;;;;5056698;28;20495;-84
2022/07/08 05:53:55;;;;;;;10.70;2.00;;;;;;;;;;5077831;28;20037;-84
2022/07/08 05:56:22;;;;;;;15.63;2.45;;;;;;;;;;5079769;28;20072;-84
2022/07/08 05:58:48;;;;;;;12.23;2.10;;;;;;;;;;5072357;28;20087;-83
2022/07/08 06:01:14;;;;;;;12.43;2.58;;;;;;;;;;5037855;28;20051;-83
2022/07/08 06:03:40;;;;;;;11.30;2.10;;;;;;;;;;5045798;28;20045;-84
2022/07/08 06:06:06;;;;;;;11.07;2.13;;;;;;;;;;5053496;28;20486;-82
2022/07/08 06:08:32;;;;;;;10.63;1.70;;;;;;;;;;5053348;28;20048;-84
2022/07/08 06:11:01;;;;;;;11.35;2.30;;;;;;;;;;5072891;28;20048;-84
2022/07/08 06:13:27;;;;;;;11.70;2.10;;;;;;;;;;5056818;28;20507;-83
2022/07/08 06:15:53;;;;;;;14.52;2.28;;;;;;;;;;5025244;28;20057;-84
2022/07/08 06:18:19;;;;;;;10.70;1.88;;;;;;;;;;5046509;28;20056;-84
2022/07/08 06:20:45;;;;;;;10.57;1.90;;;;;;;;;;5053234;28;20410;-83
2022/07/08 06:23:11;;;;;;;11.30;2.30;;;;;;;;;;5036743;28;20045;-83
2022/07/08 06:25:38;;;;;;;10.18;1.73;;;;;;;;;;5053548;28;20052;-84
2022/07/08 06:28:04;;;;;;;9.93;2.00;;;;;;;;;;5055321;28;20048;-83
2022/07/08 06:30:30;;;;;;;13.00;2.20;;;;;;;;;;5063783;28;20048;-84
2022/07/08 06:32:56;;;;;;;9.10;1.85;;;;;;;;;;5071244;28;20132;-84
2022/07/08 06:35:22;;;;;;;10.15;1.88;;;;;;;;;;5052521;28;20060;-84
2022/07/08 06:37:48;;;;;;;11.65;1.95;;;;;;;;;;5052837;28;20060;-84
2022/07/08 06:40:14;;;;;;;11.82;1.85;;;;;;;;;;5036530;28;20053;-84
2022/07/08 06:42:40;;;;;;;14.10;2.10;;;;;;;;;;5051742;28;20380;-83
2022/07/08 06:45:06;;;;;;;9.25;2.05;;;;;;;;;;5055287;28;20037;-83
2022/07/08 06:47:32;;;;;;;12.88;2.17;;;;;;;;;;5054438;28;20072;-83
2022/07/08 06:49:58;;;;;;;11.00;2.30;;;;;;;;;;5051796;28;20127;-84
2022/07/08 06:52:27;;;;;;;14.55;2.30;;;;;;;;;;5063764;28;20060;-85
2022/07/08 06:54:53;;;;;;;9.27;1.88;;;;;;;;;;5049065;28;20037;-85
2022/07/08 06:57:21;;;;;;;10.45;1.75;;;;;;;;;;5026665;28;20029;-85
2022/07/08 06:59:47;;;;;;;10.82;1.70;;;;;;;;;;5077721;28;20064;-84
2022/07/08 07:02:13;;;;;;;11.90;2.33;;;;;;;;;;5053164;28;20037;-85
2022/07/08 07:04:39;;;;;;;14.27;2.72;;;;;;;;;;5063168;28;20104;-86
2022/07/08 07:07:05;;;;;;;12.95;2.15;;;;;;;;;;5054583;28;20041;-85
2022/07/08 07:09:32;;;;;;;11.43;2.00;;;;;;;;;;5056083;28;20080;-85
2022/07/08 07:11:58;;;;;;;13.13;2.80;;;;;;;;;;5056517;28;20028;-83
2022/07/08 07:14:24;;;;;;;14.38;3.20;;;;;;;;;;5057896;28;20032;-85
2022/07/08 07:16:50;;;;;;;14.98;4.55;;;;;;;;;;5057801;28;20033;-84
2022/07/08 07:19:16;;;;;;;20.42;5.00;;;;;;;;;;5054752;28;20030;-86
2022/07/08 07:21:42;;;;;;;12.60;3.53;;;;;;;;;;5044929;28;20045;-85
2022/07/08 07:24:08;;;;;;;15.45;3.83;;;;;;;;;;5032490;28;20507;-85
2022/07/08 07:26:34;;;;;;;10.25;2.65;;;;;;;;;;5032517;28;20056;-84
2022/07/08 07:29:00;;;;;;;12.73;2.95;;;;;;;;;;5034089;28;20048;-84
2022/07/08 07:31:26;;;;;;;12.35;2.30;;;;;;;;;;5033086;28;20045;-85
2022/07/08 07:33:52;;;;;;;11.95;2.20;;;;;;;;;;5036174;28;20403;-85
2022/07/08 07:36:18;;;;;;;11.80;2.60;;;;;;;;;;5037889;28;20548;-85
2022/07/08 07:38:44;;;;;;;10.30;2.20;;;;;;;;;;5036053;28;20038;-84
2022/07/08 07:41:10;;;;;;;14.15;2.30;;;;;;;;;;5038844;28;20076;-86
2022/07/08 07:43:36;;;;;;;10.65;2.10;;;;;;;;;;5038836;28;20060;-84
2022/07/08 07:46:02;;;;;;;13.38;2.45;;;;;;;;;;5025815;28;20041;-84
2022/07/08 07:48:28;;;;;;;9.80;2.40;;;;;;;;;;5027683;28;20554;-82
2022/07/08 07:50:54;;;;;;;11.77;2.00;;;;;;;;;;5030203;28;20052;-82
2022/07/08 07:53:20;;;;;;;9.85;2.33;;;;;;;;;;5031369;28;20041;-83
2022/07/08 07:55:46;;;;;;;13.57;2.30;;;;;;;;;;5026145;28;20045;-84
2022/07/08 07:58:12;;;;;;;11.15;2.40;;;;;;;;;;5026795;28;20046;-85
2022/07/08 08:00:38;;;;;;;9.75;2.13;;;;;;;;;;5031718;28;20444;-86
2022/07/08 08:03:04;;;;;;;15.02;2.55;;;;;;;;;;5034510;28;20049;-84
2022/07/08 08:05:30;;;;;;;13.88;2.95;;;;;;;;;;5034360;28;20041;-83
2022/07/08 08:07:56;;;;;;;11.27;2.28;;;;;;;;;;5049483;28;20056;-85
2022/07/08 08:10:23;;;;;;;12.98;2.10;;;;;;;;;;5054316;28;20415;-85
2022/07/08 08:12:51;;;;;;;12.13;1.90;;;;;;;;;;5048259;28;20056;-85
2022/07/08 08:15:17;;;;;;;11.20;2.08;;;;;;;;;;5052399;28;20045;-85
2022/07/08 08:17:43;;;;;;;10.43;1.90;;;;;;;;;;5050558;28;20043;-84
2022/07/08 08:20:11;;;;;;;7.93;1.90;;;;;;;;;;5047186;28;20092;-84
2022/07/08 08:22:37;;;;;;;10.57;2.10;;;;;;;;;;5046455;28;20037;-86
2022/07/08 08:25:03;;;;;;;9.55;1.83;;;;;;;;;;5050361;28;20044;-85
2022/07/08 08:27:29;;;;;;;9.57;1.92;;;;;;;;;;5010060;28;20041;-85
2022/07/08 08:29:55;;;;;;;9.77;1.90;;;;;;;;;;5048243;28;20040;-86
2022/07/08 08:32:22;;;;;;;7.70;1.60;;;;;;;;;;5049352;28;20047;-85
2022/07/08 08:34:48;;;;;;;7.25;1.70;;;;;;;;;;5057298;28;20080;-84
2022/07/08 08:37:14;;;;;;;9.85;2.17;;;;;;;;;;5054692;28;20546;-84
2022/07/08 08:39:40;;;;;;;12.52;2.63;;;;;;;;;;5051291;28;20048;-85
2022/07/08 08:42:07;;;;;;;12.07;2.45;;;;;;;;;;5052088;28;20487;-84
2022/07/08 08:44:33;;;;;;;8.65;1.80;;;;;;;;;;5061354;28;20040;-85
2022/07/08 08:47:03;;;;;;;9.57;2.10;;;;;;;;;;5072170;28;20045;-86
2022/07/08 08:49:32;;;;;;;11.13;2.13;;;;;;;;;;5056120;28;20513;-85
2022/07/08 08:51:59;;;;;;;12.25;2.13;;;;;;;;;;5037718;28;20045;-85
2022/07/08 08:54:25;;;;;;;10.18;1.88;;;;;;;;;;5056936;28;20056;-85
2022/07/08 08:56:52;;;;;;;9.25;1.88;;;;;;;;;;5055751;28;20103;-85
2022/07/08 08:59:18;;;;;;;11.68;2.40;;;;;;;;;;5053836;28;20052;-85
2022/07/08 09:01:44;;;;;;;9.43;2.30;;;;;;;;;;5065452;28;20043;-84
2022/07/08 09:04:11;;;;;;;10.63;2.05;;;;;;;;;;5054471;28;20490;-86
2022/07/08 09:06:40;;;;;;;12.70;1.95;;;;;;;;;;5056802;28;20494;-85
2022/07/08 09:09:07;;;;;;;14.10;2.47;;;;;;;;;;5049883;28;20053;-85
2022/07/08 09:11:34;;;;;;;11.55;2.00;;;;;;;;;;5039085;28;20135;-85
2022/07/08 09:14:16;;;;;;;8.93;2.08;;;;;;;;;;5056380;28;20071;-85
2022/07/08 09:17:03;;;;;;;8.52;2.15;;;;;;;;;;5056953;28;20052;-85
2022/07/08 09:19:29;;;;;;;9.55;1.90;;;;;;;;;;5024853;28;20049;-85
2022/07/08 09:21:55;;;;;;;9.15;1.80;;;;;;;;;;5055288;28;20553;-85
2022/07/08 09:24:21;;;;;;;9.63;2.10;;;;;;;;;;5056817;28;20071;-85
2022/07/08 09:26:47;;;;;;;10.48;2.10;;;;;;;;;;5053513;28;20476;-86
2022/07/08 09:29:13;;;;;;;11.30;2.60;;;;;;;;;;5076606;28;20060;-86
2022/07/08 09:31:39;;;;;;;12.85;1.92;;;;;;;;;;5076308;28;20049;-84
2022/07/08 09:34:10;;;;;;;9.65;1.73;;;;;;;;;;5064119;28;20044;-85
2022/07/08 09:36:45;;;;;;;8.18;2.15;;;;;;;;;;5056139;28;20534;-85
2022/07/08 09:39:25;;;;;;;11.20;2.50;;;;;;;;;;5056238;28;20051;-85
2022/07/08 09:41:51;;;;;;;11.48;2.10;;;;;;;;;;5055999;28;20048;-85
2022/07/08 09:44:19;;;;;;;13.07;2.20;;;;;;;;;;5055921;28;20515;-86
2022/07/08 09:46:46;;;;;;;8.55;2.20;;;;;;;;;;5056007;28;20124;-86
2022/07/08 09:49:28;;;;;;;9.32;2.10;;;;;;;;;;5073144;28;20049;-85
2022/07/08 09:51:56;;;;;;;7.20;1.90;;;;;;;;;;5057471;28;20045;-84
2022/07/08 09:54:22;;;;;;;9.70;2.70;;;;;;;;;;5055867;28;20494;-85
2022/07/08 09:57:02;;;;;;;9.95;2.45;;;;;;;;;;5055889;28;20525;-85
2022/07/08 09:59:32;;;;;;;10.07;2.13;;;;;;;;;;5055913;28;20119;-84
2022/07/08 10:01:58;;;;;;;7.95;2.00;;;;;;;;;;5054681;28;20033;-84
2022/07/08 10:04:25;;;;;;;12.52;2.78;;;;;;;;;;5054625;28;20053;-84
2022/07/08 10:06:54;;;;;;;8.10;2.00;;;;;;;;;;5056437;28;20557;-85
2022/07/08 10:09:21;;;;;;;11.98;2.38;;;;;;;;;;5054795;28;20040;-85
2022/07/08 10:11:48;;;;;;;11.40;2.30;;;;;;;;;;5072479;28;20048;-84
2022/07/08 10:14:15;;;;;;;14.75;2.83;;;;;;;;;;5055098;28;20108;-84
2022/07/08 10:16:41;;;;;;;13.68;2.47;;;;;;;;;;5034905;28;20041;-83
2022/07/08 10:19:12;;;;;;;16.88;3.20;;;;;;;;;;5054740;28;20120;-85
2022/07/08 10:21:40;;;;;;;15.82;2.40;;;;;;;;;;5062379;28;20127;-86
2022/07/08 10:24:08;;;;;;;10.38;2.58;;;;;;;;;;5057608;28;20067;-86
2022/07/08 10:26:38;;;;;;;10.05;2.40;;;;;;;;;;5055566;28;20086;-86
2022/07/08 10:29:08;;;;;;;11.98;2.65;;;;;;;;;;5056072;28;20409;-86
2022/07/08 10:31:46;;;;;;;10.55;2.40;;;;;;;;;;5050746;28;20045;-85
2022/07/08 10:34:12;;;;;;;10.40;2.45;;;;;;;;;;5049362;28;20487;-85
2022/07/08 10:36:45;;;;;;;11.20;2.80;;;;;;;;;;5053825;28;20479;-85
2022/07/08 10:39:14;;;;;;;13.93;2.97;;;;;;;;;;5036753;28;20051;-84
2022/07/08 10:41:41;;;;;;;11.82;2.90;;;;;;;;;;5051914;28;20037;-86
2022/07/08 10:44:08;;;;;;;11.77;2.70;;;;;;;;;;5050129;28;20048;-85
2022/07/08 10:46:34;;;;;;;9.55;2.40;;;;;;;;;;5054745;28;20056;-86
2022/07/08 10:49:01;;;;;;;9.25;2.47;;;;;;;;;;5055490;28;20087;-85
2022/07/08 10:51:28;;;;;;;10.52;2.17;;;;;;;;;;5074455;28;20044;-85
2022/07/08 10:53:54;;;;;;;8.85;2.17;;;;;;;;;;5070888;28;20053;-85
2022/07/08 10:56:39;;;;;;;11.73;2.55;;;;;;;;;;5048834;28;20050;-85
2022/07/08 10:59:23;;;;;;;10.43;2.35;;;;;;;;;;5056197;28;20045;-83
2022/07/08 11:02:04;;;;;;;10.00;2.22;;;;;;;;;;5055048;28;20583;-86
2022/07/08 11:04:31;;;;;;;;;;;;;;;;;;5062145;28;20137;-84
2022/07/08 11:07:22;;;;;;;7.68;2.15;;;;;;;;;;5051451;28;19921;-84
2022/07/08 11:09:52;;;;;;;10.55;2.67;;;;;;;;;;5052327;28;20045;-90
2022/07/08 11:12:22;;;;;;;9.00;2.30;;;;;;;;;;5046181;28;20049;-81
2022/07/08 11:14:50;;;;;;;7.50;2.15;;;;;;;;;;5053292;28;20041;-84
2022/07/08 11:17:16;;;;;;;8.93;2.38;;;;;;;;;;5054729;28;20506;-83
2022/07/08 11:19:43;;;;;;;8.77;2.30;;;;;;;;;;5036598;28;20041;-86
2022/07/08 11:22:10;;;;;;;11.38;2.40;;;;;;;;;;5071217;28;20045;-87
2022/07/08 11:24:39;;;;;;;11.32;2.70;;;;;;;;;;5087106;28;20032;-86
2022/07/08 11:27:06;;;;;;;8.93;2.70;;;;;;;;;;5076490;28;20071;-85
2022/07/08 11:29:32;;;;;;;9.45;2.47;;;;;;;;;;5053100;28;20461;-85
2022/07/08 11:31:59;;;;;;;9.73;2.65;;;;;;;;;;5061992;28;20036;-84
2022/07/08 11:34:25;;;;;;;8.95;2.50;;;;;;;;;;5031557;28;20118;-86
2022/07/08 11:36:55;;;;;;;8.90;2.20;;;;;;;;;;5030786;28;20049;-84
2022/07/08 11:39:21;;;;;;;9.45;2.22;;;;;;;;;;5063371;28;20073;-84
2022/07/08 11:41:47;;;;;;;8.13;2.80;;;;;;;;;;5044705;28;20052;-84
2022/07/08 11:44:13;;;;;;;8.98;2.30;;;;;;;;;;5064219;28;20049;-83
2022/07/08 11:46:46;;;;;;;7.50;2.38;;;;;;;;;;5064147;28;20555;-84
2022/07/08 11:49:12;;;;;;;10.30;2.10;;;;;;;;;;5050196;28;20059;-84
2022/07/08 11:51:38;;;;;;;8.45;2.30;;;;;;;;;;5083407;28;20050;-84
2022/07/08 11:54:04;;;;;;;14.43;2.22;;;;;;;;;;5077494;28;20036;-84
2022/07/08 11:56:33;;;;;;;11.10;2.50;;;;;;;;;;5060291;28;20028;-84
2022/07/08 11:58:59;;;;;;;9.15;2.00;;;;;;;;;;5075878;28;20119;-84
2022/07/08 12:01:26;;;;;;;7.60;2.10;;;;;;;;;;5072682;28;20044;-85
2022/07/08 12:03:52;;;;;;;8.23;2.53;;;;;;;;;;5071821;28;20032;-85
2022/07/08 12:06:25;;;;;;;10.75;2.55;;;;;;;;;;5076608;28;20088;-83
2022/07/08 12:08:51;;;;;;;8.40;1.90;;;;;;;;;;5076279;28;20115;-83
2022/07/08 12:11:19;;;;;;;10.15;2.00;;;;;;;;;;5078548;28;20036;-84
2022/07/08 12:13:46;;;;;;;8.57;2.20;;;;;;;;;;5078472;28;20109;-84
2022/07/08 12:16:32;;;;;;;10.48;2.10;;;;;;;;;;5073653;28;20021;-83
2022/07/08 12:18:58;;;;;;;11.25;2.30;;;;;;;;;;5054967;28;20080;-85
2022/07/08 12:21:24;;;;;;;7.40;2.25;;;;;;;;;;5068957;28;20505;-83
2022/07/08 12:24:00;;;;;;;9.50;2.20;;;;;;;;;;5074260;28;20516;-85
2022/07/08 12:26:26;;;;;;;8.75;2.15;;;;;;;;;;5060315;28;20045;-85
2022/07/08 12:28:53;;;;;;;7.75;2.05;;;;;;;;;;5054036;28;20130;-83
2022/07/08 12:31:45;;;;;;;8.25;1.80;;;;;;;;;;5045996;28;20641;-82
2022/07/08 12:34:19;;;;;;;8.32;1.83;;;;;;;;;;5031075;28;20054;-84
2022/07/08 12:36:46;;;;;;;7.78;2.28;;;;;;;;;;5048522;28;20049;-83
2022/07/08 12:39:16;;;;;;;9.40;2.08;;;;;;;;;;5055694;28;20077;-84
2022/07/08 12:41:44;;;;;;;8.52;2.17;;;;;;;;;;5047513;28;20037;-87
2022/07/08 12:44:29;;;;;;;6.30;2.05;;;;;;;;;;5052089;28;20041;-85
2022/07/08 12:46:56;;;;;;;7.63;1.70;;;;;;;;;;5034616;28;20042;-85
2022/07/08 12:49:23;;;;;;;9.77;2.28;;;;;;;;;;5029414;28;20049;-86
2022/07/08 12:51:49;;;;;;;8.20;2.13;;;;;;;;;;5042817;28;20052;-84
2022/07/08 12:54:17;;;;;;;6.78;1.75;;;;;;;;;;5053497;28;20056;-86
2022/07/08 12:56:43;;;;;;;8.02;1.90;;;;;;;;;;5051898;28;20049;-84
2022/07/08 12:59:09;;;;;;;7.32;1.73;;;;;;;;;;5033674;28;20506;-85
2022/07/08 13:01:35;;;;;;;8.30;2.00;;;;;;;;;;5056544;28;20048;-84
2022/07/08 13:04:02;;;;;;;9.43;1.70;;;;;;;;;;5034610;28;20475;-85
2022/07/08 13:06:28;;;;;;;7.20;1.85;;;;;;;;;;5033528;28;20508;-84
2022/07/08 13:08:54;;;;;;;7.25;1.90;;;;;;;;;;5034702;28;20107;-86
2022/07/08 13:11:20;;;;;;;8.52;2.08;;;;;;;;;;5036755;28;20052;-85
2022/07/08 13:13:46;;;;;;;7.53;1.67;;;;;;;;;;5032654;28;20117;-83
2022/07/08 13:16:12;;;;;;;7.43;1.80;;;;;;;;;;5023085;28;20072;-85
2022/07/08 13:18:38;;;;;;;8.85;1.92;;;;;;;;;;5032055;28;20561;-84
2022/07/08 13:21:04;;;;;;;6.90;1.90;;;;;;;;;;5036374;28;20057;-86
2022/07/08 13:23:30;;;;;;;7.90;1.92;;;;;;;;;;5017561;28;20116;-85
2022/07/08 13:25:56;;;;;;;7.55;2.05;;;;;;;;;;5020033;28;20125;-85
2022/07/08 13:28:22;;;;;;;9.60;1.88;;;;;;;;;;5036926;28;20042;-85
2022/07/08 13:30:48;;;;;;;11.35;1.90;;;;;;;;;;5036359;28;20058;-85
2022/07/08 13:33:14;;;;;;;5.45;1.80;;;;;;;;;;5037809;28;20053;-85
2022/07/08 13:35:40;;;;;;;7.03;1.95;;;;;;;;;;5037422;28;20041;-86
2022/07/08 13:38:06;;;;;;;7.10;1.73;;;;;;;;;;5036242;28;20107;-86
2022/07/08 13:40:32;;;;;;;7.70;1.88;;;;;;;;;;5037078;28;20480;-85
2022/07/08 13:42:58;;;;;;;9.77;1.70;;;;;;;;;;5032088;28;21208;-85
2022/07/08 13:45:24;;;;;;;7.97;1.88;;;;;;;;;;5029893;28;20041;-86
2022/07/08 13:47:50;;;;;;;7.82;2.08;;;;;;;;;;5033878;28;20415;-86
2022/07/08 13:50:20;;;;;;;7.28;1.65;;;;;;;;;;5037966;28;20046;-85
2022/07/08 13:52:46;;;;;;;8.50;1.90;;;;;;;;;;5031431;28;20550;-85
2022/07/08 13:55:12;;;;;;;8.43;2.00;;;;;;;;;;5031396;28;20069;-90
2022/07/08 13:57:38;;;;;;;6.55;1.80;;;;;;;;;;5035327;28;20046;-85
2022/07/08 14:00:06;;;;;;;8.45;2.08;;;;;;;;;;5033856;28;20056;-84
2022/07/08 14:02:32;;;;;;;9.07;1.90;;;;;;;;;;5030855;28;20105;-86
2022/07/08 14:04:58;;;;;;;6.97;1.83;;;;;;;;;;5035745;28;20033;-84
2022/07/08 14:07:24;;;;;;;9.00;2.20;;;;;;;;;;5030068;28;20068;-87
2022/07/08 14:09:50;;;;;;;8.07;2.20;;;;;;;;;;5027739;28;20551;-85
2022/07/08 14:12:18;;;;;;;7.28;2.00;;;;;;;;;;5033880;28;20127;-85
2022/07/08 14:14:44;;;;;;;8.73;2.05;;;;;;;;;;5029358;28;20771;-86
2022/07/08 14:17:10;;;;;;;7.95;1.90;;;;;;;;;;5028304;28;20553;-86
2022/07/08 14:19:37;;;;;;;9.60;2.08;;;;;;;;;;5033335;28;20041;-85
2022/07/08 14:22:03;;;;;;;10.73;2.65;;;;;;;;;;5034860;28;20487;-86
2022/07/08 14:24:29;;;;;;;8.25;2.00;;;;;;;;;;5034127;28;20068;-86
2022/07/08 14:26:55;;;;;;;7.75;1.88;;;;;;;;;;5032753;28;20123;-85
2022/07/08 14:29:21;;;;;;;8.60;1.88;;;;;;;;;;5033573;28;20373;-84
2022/07/08 14:31:48;;;;;;;10.25;2.22;;;;;;;;;;5033431;28;20046;-84
2022/07/08 14:34:14;;;;;;;9.50;1.98;;;;;;;;;;5030342;28;20392;-84
2022/07/08 14:36:40;;;;;;;10.23;2.33;;;;;;;;;;5030590;28;20042;-85
2022/07/08 14:39:06;;;;;;;8.10;2.00;;;;;;;;;;5027191;28;20122;-84